Dumas, Mississippi
Current Conditions -  °F | °C
As of 11:35 AM on Thursday 30 Oct 2014 (Local Time) from KCRX Reporting Station
Clear Clear  
Wind Chill: 59°   Ceiling: Unl
Heat Index: 59°   Visibility: 10mi
Dew Point: 41°   Wind: 0mph
Humidity: 51%   Direction: NA
Pressure: 30.16"   Gusts: NA
Location:  34.64°N, 88.84°W
Report Text: KCRX 301635Z AUTO 00000KT 10SM CLR 15/05 A3016 RMK AO2
Loading
Personal Weather Stations






























Interactive Weather Map
Tropical Storm Tracking
New forecast layout! Learn more

10-Day Weather Forecast

Advertisements
Track Severe Weather on mobile